sensor_id;sensor_type;location;lat;lon;timestamp;pressure;altitude;pressure_sealevel;temperature;humidity
34197;BME280;36594;45.192;5.722;2023-04-26T00:02:18;99076.20;;;24.09;34.31
34197;BME280;36594;45.192;5.722;2023-04-26T00:05:08;99088.01;;;24.10;34.30
34197;BME280;36594;45.192;5.722;2023-04-26T00:07:56;99090.71;;;24.07;34.33
34197;BME280;36594;45.192;5.722;2023-04-26T00:10:45;99092.13;;;24.10;34.30
34197;BME280;36594;45.192;5.722;2023-04-26T00:13:34;99094.03;;;24.09;34.33
34197;BME280;36594;45.192;5.722;2023-04-26T00:16:24;99100.66;;;24.11;34.31
34197;BME280;36594;45.192;5.722;2023-04-26T00:19:12;99095.13;;;24.08;34.34
34197;BME280;36594;45.192;5.722;2023-04-26T00:22:02;99104.20;;;24.11;34.33
34197;BME280;36594;45.192;5.722;2023-04-26T00:24:51;99105.00;;;24.09;34.33
34197;BME280;36594;45.192;5.722;2023-04-26T00:27:39;99107.52;;;24.11;34.33
34197;BME280;36594;45.192;5.722;2023-04-26T00:30:28;99111.86;;;24.09;34.38
34197;BME280;36594;45.192;5.722;2023-04-26T00:33:16;99109.13;;;24.09;34.34
34197;BME280;36594;45.192;5.722;2023-04-26T00:36:05;99112.44;;;24.11;34.33
34197;BME280;36594;45.192;5.722;2023-04-26T00:38:53;99105.58;;;24.11;34.32
34197;BME280;36594;45.192;5.722;2023-04-26T00:41:42;99106.14;;;24.11;34.33
34197;BME280;36594;45.192;5.722;2023-04-26T00:44:30;99112.17;;;24.10;34.31
34197;BME280;36594;45.192;5.722;2023-04-26T00:47:19;99108.32;;;24.11;34.37
34197;BME280;36594;45.192;5.722;2023-04-26T00:50:08;99115.18;;;24.11;34.33
34197;BME280;36594;45.192;5.722;2023-04-26T00:52:58;99117.92;;;24.11;34.35
34197;BME280;36594;45.192;5.722;2023-04-26T00:55:47;99122.04;;;24.11;34.37
34197;BME280;36594;45.192;5.722;2023-04-26T00:58:37;99131.91;;;24.10;34.36
34197;BME280;36594;45.192;5.722;2023-04-26T01:01:26;99133.02;;;24.11;34.35
34197;BME280;36594;45.192;5.722;2023-04-26T01:04:16;99133.02;;;24.11;34.37
34197;BME280;36594;45.192;5.722;2023-04-26T01:07:05;99133.86;;;24.12;34.39
34197;BME280;36594;45.192;5.722;2023-04-26T01:09:54;99132.48;;;24.12;34.33
34197;BME280;36594;45.192;5.722;2023-04-26T01:12:43;99139.87;;;24.11;34.39
34197;BME280;36594;45.192;5.722;2023-04-26T01:15:32;99138.81;;;24.12;34.34
34197;BME280;36594;45.192;5.722;2023-04-26T01:18:22;99139.65;;;24.13;34.34
34197;BME280;36594;45.192;5.722;2023-04-26T01:21:11;99135.77;;;24.11;34.35
34197;BME280;36594;45.192;5.722;2023-04-26T01:24:00;99140.19;;;24.12;34.37
34197;BME280;36594;45.192;5.722;2023-04-26T01:26:50;99137.97;;;24.12;34.33
34197;BME280;36594;45.192;5.722;2023-04-26T01:29:40;99144.03;;;24.14;34.33
34197;BME280;36594;45.192;5.722;2023-04-26T01:32:29;99146.73;;;24.11;34.34
34197;BME280;36594;45.192;5.722;2023-04-26T01:35:19;99148.41;;;24.12;34.34
34197;BME280;36594;45.192;5.722;2023-04-26T01:38:07;99146.73;;;24.11;34.37
34197;BME280;36594;45.192;5.722;2023-04-26T01:40:56;99151.95;;;24.10;34.38
34197;BME280;36594;45.192;5.722;2023-04-26T01:43:44;99147.58;;;24.12;34.37
34197;BME280;36594;45.192;5.722;2023-04-26T01:46:32;99140.14;;;24.10;34.34
34197;BME280;36594;45.192;5.722;2023-04-26T01:49:20;99136.59;;;24.12;34.38
34197;BME280;36594;45.192;5.722;2023-04-26T01:52:09;99140.68;;;24.09;34.40
34197;BME280;36594;45.192;5.722;2023-04-26T01:54:57;99134.39;;;24.11;34.39
34197;BME280;36594;45.192;5.722;2023-04-26T01:57:46;99134.16;;;24.13;34.37
34197;BME280;36594;45.192;5.722;2023-04-26T02:00:36;99136.59;;;24.12;34.33
34197;BME280;36594;45.192;5.722;2023-04-26T02:03:24;99140.68;;;24.09;34.38
34197;BME280;36594;45.192;5.722;2023-04-26T02:06:12;99141.78;;;24.08;34.42
34197;BME280;36594;45.192;5.722;2023-04-26T02:09:01;99142.05;;;24.09;34.39
34197;BME280;36594;45.192;5.722;2023-04-26T02:11:50;99137.94;;;24.09;34.41
34197;BME280;36594;45.192;5.722;2023-04-26T02:14:38;99133.59;;;24.11;34.37
34197;BME280;36594;45.192;5.722;2023-04-26T02:17:28;99137.40;;;24.10;34.39
34197;BME280;36594;45.192;5.722;2023-04-26T02:20:18;99144.26;;;24.10;34.41
34197;BME280;36594;45.192;5.722;2023-04-26T02:23:07;99134.62;;;24.07;34.47
34197;BME280;36594;45.192;5.722;2023-04-26T02:25:55;99125.31;;;24.08;34.43
34197;BME280;36594;45.192;5.722;2023-04-26T02:28:43;99129.05;;;24.04;34.48
34197;BME280;36594;45.192;5.722;2023-04-26T02:31:33;99127.76;;;24.07;34.44
34197;BME280;36594;45.192;5.722;2023-04-26T02:34:21;99130.23;;;24.09;34.39
34197;BME280;36594;45.192;5.722;2023-04-26T02:37:10;99129.20;;;24.12;34.33
34197;BME280;36594;45.192;5.722;2023-04-26T02:39:58;99127.53;;;24.11;34.32
34197;BME280;36594;45.192;5.722;2023-04-26T02:42:48;99130.58;;;24.12;34.30
34197;BME280;36594;45.192;5.722;2023-04-26T02:45:41;99133.02;;;24.11;34.33
34197;BME280;36594;45.192;5.722;2023-04-26T02:48:31;99130.50;;;24.07;34.34
34197;BME280;36594;45.192;5.722;2023-04-26T02:51:19;99121.44;;;24.07;34.35
34197;BME280;36594;45.192;5.722;2023-04-26T02:54:08;99124.74;;;24.06;34.41
34197;BME280;36594;45.192;5.722;2023-04-26T02:56:56;99119.25;;;24.06;34.34
34197;BME280;36594;45.192;5.722;2023-04-26T02:59:45;99112.39;;;24.06;34.35
34197;BME280;36594;45.192;5.722;2023-04-26T03:02:33;99111.48;;;24.03;34.38
34197;BME280;36594;45.192;5.722;2023-04-26T03:05:22;99112.33;;;24.03;34.38
34197;BME280;36594;45.192;5.722;2023-04-26T03:08:12;99106.27;;;24.04;34.39
34197;BME280;36594;45.192;5.722;2023-04-26T03:11:02;99103.52;;;24.04;34.40
34197;BME280;36594;45.192;5.722;2023-04-26T03:13:51;99113.12;;;24.04;34.38
34197;BME280;36594;45.192;5.722;2023-04-26T03:16:43;99116.67;;;24.02;34.39
34197;BME280;36594;45.192;5.722;2023-04-26T03:19:32;99116.44;;;24.03;34.38
34197;BME280;36594;45.192;5.722;2023-04-26T03:22:22;99113.09;;;24.01;34.39
34197;BME280;36594;45.192;5.722;2023-04-26T03:25:10;99110.91;;;24.01;34.42
34197;BME280;36594;45.192;5.722;2023-04-26T03:27:59;99116.67;;;24.02;34.43
34197;BME280;36594;45.192;5.722;2023-04-26T03:30:48;99116.09;;;24.00;34.40
34197;BME280;36594;45.192;5.722;2023-04-26T03:33:39;99121.59;;;24.00;34.42
34197;BME280;36594;45.192;5.722;2023-04-26T03:36:28;99118.58;;;23.99;34.48
34197;BME280;36594;45.192;5.722;2023-04-26T03:39:17;99116.59;;;23.97;34.44
34197;BME280;36594;45.192;5.722;2023-04-26T03:42:06;99111.71;;;23.99;34.43
34197;BME280;36594;45.192;5.722;2023-04-26T03:44:54;99111.41;;;23.98;34.48
34197;BME280;36594;45.192;5.722;2023-04-26T03:47:43;99114.16;;;23.98;34.39
34197;BME280;36594;45.192;5.722;2023-04-26T03:50:31;99116.06;;;23.97;34.27
34197;BME280;36594;45.192;5.722;2023-04-26T03:53:20;99113.31;;;23.97;34.18
34197;BME280;36594;45.192;5.722;2023-04-26T03:56:08;99115.83;;;23.99;34.15
34197;BME280;36594;45.192;5.722;2023-04-26T03:58:57;99114.08;;;23.93;34.10
34197;BME280;36594;45.192;5.722;2023-04-26T04:01:46;99114.08;;;23.93;34.10
34197;BME280;36594;45.192;5.722;2023-04-26T04:04:34;99118.27;;;23.98;34.06
34197;BME280;36594;45.192;5.722;2023-04-26T04:07:23;99111.41;;;23.98;34.03
34197;BME280;36594;45.192;5.722;2023-04-26T04:10:12;99111.67;;;23.96;34.05
34197;BME280;36594;45.192;5.722;2023-04-26T04:13:03;99118.77;;;23.95;34.04
34197;BME280;36594;45.192;5.722;2023-04-26T04:15:52;99122.31;;;23.93;34.07
34197;BME280;36594;45.192;5.722;2023-04-26T04:18:40;99123.14;;;23.93;34.09
34197;BME280;36594;45.192;5.722;2023-04-26T04:21:30;99122.57;;;23.91;34.10
34197;BME280;36594;45.192;5.722;2023-04-26T04:24:19;99125.31;;;23.91;34.08
34197;BME280;36594;45.192;5.722;2023-04-26T04:27:07;99125.84;;;23.91;34.10
34197;BME280;36594;45.192;5.722;2023-04-26T04:29:55;99130.27;;;23.92;34.07
34197;BME280;36594;45.192;5.722;2023-04-26T04:32:44;99142.31;;;23.91;34.06
34197;BME280;36594;45.192;5.722;2023-04-26T04:35:34;99142.31;;;23.91;34.04
34197;BME280;36594;45.192;5.722;2023-04-26T04:38:24;99142.00;;;23.90;34.03
34197;BME280;36594;45.192;5.722;2023-04-26T04:41:13;99144.75;;;23.90;34.22
34197;BME280;36594;45.192;5.722;2023-04-26T04:44:03;99144.21;;;23.90;34.24
34197;BME280;36594;45.192;5.722;2023-04-26T04:46:52;99148.09;;;23.92;34.25
34197;BME280;36594;45.192;5.722;2023-04-26T04:49:41;99151.91;;;23.91;34.29
34197;BME280;36594;45.192;5.722;2023-04-26T04:52:29;99154.34;;;23.90;34.33
34197;BME280;36594;45.192;5.722;2023-04-26T04:55:19;99155.72;;;23.90;34.38
34197;BME280;36594;45.192;5.722;2023-04-26T04:58:08;99153.20;;;23.86;34.42
34197;BME280;36594;45.192;5.722;2023-04-26T05:00:56;99161.47;;;23.88;34.46
34197;BME280;36594;45.192;5.722;2023-04-26T05:03:48;99168.05;;;23.87;34.45
34197;BME280;36594;45.192;5.722;2023-04-26T05:06:37;99172.70;;;23.87;34.47
34197;BME280;36594;45.192;5.722;2023-04-26T05:09:26;99168.59;;;23.87;34.47
34197;BME280;36594;45.192;5.722;2023-04-26T05:12:14;99174.30;;;23.85;34.47
34197;BME280;36594;45.192;5.722;2023-04-26T05:15:03;99183.67;;;23.87;34.45
34197;BME280;36594;45.192;5.722;2023-04-26T05:17:52;99180.94;;;23.87;34.47
34197;BME280;36594;45.192;5.722;2023-04-26T05:20:43;99187.48;;;23.86;34.48
34197;BME280;36594;45.192;5.722;2023-04-26T05:23:31;99188.59;;;23.85;34.51
34197;BME280;36594;45.192;5.722;2023-04-26T05:26:20;99191.86;;;23.84;34.50
34197;BME280;36594;45.192;5.722;2023-04-26T05:29:13;99195.14;;;23.84;34.53
34197;BME280;36594;45.192;5.722;2023-04-26T05:32:13;99205.58;;;23.84;34.51
34197;BME280;36594;45.192;5.722;2023-04-26T05:35:07;99201.69;;;23.83;34.52
34197;BME280;36594;45.192;5.722;2023-04-26T05:37:55;99202.75;;;23.79;34.53
34197;BME280;36594;45.192;5.722;2023-04-26T05:40:44;99200.80;;;23.77;34.59
34197;BME280;36594;45.192;5.722;2023-04-26T05:43:34;99203.33;;;23.81;34.58
34197;BME280;36594;45.192;5.722;2023-04-26T05:46:23;99220.09;;;23.82;34.58
34197;BME280;36594;45.192;5.722;2023-04-26T05:49:11;99215.30;;;23.75;34.24
34197;BME280;36594;45.192;5.722;2023-04-26T05:51:59;99213.05;;;23.72;34.04
34197;BME280;36594;45.192;5.722;2023-04-26T05:54:50;99207.03;;;23.73;33.84
34197;BME280;36594;45.192;5.722;2023-04-26T05:57:39;99210.93;;;23.77;34.01
34197;BME280;36594;45.192;5.722;2023-04-26T06:00:27;99207.88;;;23.76;34.25
34197;BME280;36594;45.192;5.722;2023-04-26T06:03:16;99200.80;;;23.77;34.33
34197;BME280;36594;45.192;5.722;2023-04-26T06:06:05;99201.33;;;23.77;34.36
34197;BME280;36594;45.192;5.722;2023-04-26T06:08:54;99208.49;;;23.78;34.36
34197;BME280;36594;45.192;5.722;2023-04-26T06:11:43;99213.19;;;23.80;34.33
34197;BME280;36594;45.192;5.722;2023-04-26T06:14:33;99213.41;;;23.78;34.32
34197;BME280;36594;45.192;5.722;2023-04-26T06:17:23;99214.78;;;23.78;34.33
34197;BME280;36594;45.192;5.722;2023-04-26T06:20:12;99218.67;;;23.80;34.44
34197;BME280;36594;45.192;5.722;2023-04-26T06:23:00;99212.92;;;23.81;34.43
34197;BME280;36594;45.192;5.722;2023-04-26T06:25:49;99218.85;;;23.76;34.52
34197;BME280;36594;45.192;5.722;2023-04-26T06:28:38;99217.48;;;23.76;34.65
34197;BME280;36594;45.192;5.722;2023-04-26T06:31:27;99209.82;;;23.75;34.86
34197;BME280;36594;45.192;5.722;2023-04-26T06:34:17;99213.36;;;23.73;35.27
34197;BME280;36594;45.192;5.722;2023-04-26T06:37:05;99218.63;;;23.77;35.20
34197;BME280;36594;45.192;5.722;2023-04-26T06:39:54;99216.81;;;23.69;33.49
34197;BME280;36594;45.192;5.722;2023-04-26T06:42:43;99217.95;;;23.40;30.65
34197;BME280;36594;45.192;5.722;2023-04-26T06:45:45;99207.41;;;23.20;30.52
34197;BME280;36594;45.192;5.722;2023-04-26T06:48:40;99211.19;;;23.16;30.91
34197;BME280;36594;45.192;5.722;2023-04-26T06:51:29;99203.55;;;23.18;31.21
34197;BME280;36594;45.192;5.722;2023-04-26T06:54:18;99207.02;;;23.28;31.29
34197;BME280;36594;45.192;5.722;2023-04-26T06:57:07;99215.03;;;23.32;31.44
34197;BME280;36594;45.192;5.722;2023-04-26T06:59:55;99213.44;;;23.33;31.68
34197;BME280;36594;45.192;5.722;2023-04-26T07:02:44;99211.10;;;23.40;31.84
34197;BME280;36594;45.192;5.722;2023-04-26T07:05:32;99205.72;;;23.45;31.93
34197;BME280;36594;45.192;5.722;2023-04-26T07:08:21;99200.23;;;23.45;32.04
34197;BME280;36594;45.192;5.722;2023-04-26T07:11:11;99197.54;;;23.47;32.17
34197;BME280;36594;45.192;5.722;2023-04-26T07:13:59;99198.12;;;23.49;32.12
34197;BME280;36594;45.192;5.722;2023-04-26T07:16:48;99195.38;;;23.49;32.21
34197;BME280;36594;45.192;5.722;2023-04-26T07:19:36;99195.12;;;23.51;32.28
34197;BME280;36594;45.192;5.722;2023-04-26T07:22:25;99194.05;;;23.52;32.38
34197;BME280;36594;45.192;5.722;2023-04-26T07:25:13;99189.05;;;23.49;32.47
34197;BME280;36594;45.192;5.722;2023-04-26T07:28:01;99189.69;;;23.53;32.49
34197;BME280;36594;45.192;5.722;2023-04-26T07:30:50;99187.24;;;23.54;32.53
34197;BME280;36594;45.192;5.722;2023-04-26T07:33:39;99182.03;;;23.55;32.59
34197;BME280;36594;45.192;5.722;2023-04-26T07:36:27;99182.03;;;23.55;32.63
34197;BME280;36594;45.192;5.722;2023-04-26T07:39:15;99178.80;;;23.58;32.63
34197;BME280;36594;45.192;5.722;2023-04-26T07:42:04;99179.92;;;23.60;32.66
34197;BME280;36594;45.192;5.722;2023-04-26T07:44:53;99179.11;;;23.59;32.71
34197;BME280;36594;45.192;5.722;2023-04-26T07:47:42;99181.85;;;23.59;32.76
34197;BME280;36594;45.192;5.722;2023-04-26T07:50:31;99178.55;;;23.60;32.77
34197;BME280;36594;45.192;5.722;2023-04-26T07:53:19;99168.14;;;23.59;32.82
34197;BME280;36594;45.192;5.722;2023-04-26T07:56:08;99170.88;;;23.59;32.88
34197;BME280;36594;45.192;5.722;2023-04-26T07:58:56;99166.81;;;23.62;32.89
34197;BME280;36594;45.192;5.722;2023-04-26T08:01:44;99169.56;;;23.62;32.93
34197;BME280;36594;45.192;5.722;2023-04-26T08:04:33;99169.30;;;23.63;32.94
34197;BME280;36594;45.192;5.722;2023-04-26T08:07:22;99170.41;;;23.65;32.97
34197;BME280;36594;45.192;5.722;2023-04-26T08:10:11;99168.46;;;23.63;32.98
34197;BME280;36594;45.192;5.722;2023-04-26T08:12:59;99167.39;;;23.64;33.02
34197;BME280;36594;45.192;5.722;2023-04-26T08:15:49;99162.98;;;23.63;33.07
34197;BME280;36594;45.192;5.722;2023-04-26T08:18:37;99169.30;;;23.63;33.08
34197;BME280;36594;45.192;5.722;2023-04-26T08:21:26;99167.88;;;23.61;33.13
34197;BME280;36594;45.192;5.722;2023-04-26T08:24:14;99172.88;;;23.64;33.16
34197;BME280;36594;45.192;5.722;2023-04-26T08:27:03;99167.39;;;23.64;33.20
34197;BME280;36594;45.192;5.722;2023-04-26T08:29:52;99170.67;;;23.63;33.20
34197;BME280;36594;45.192;5.722;2023-04-26T08:32:40;99173.94;;;23.63;33.26
34197;BME280;36594;45.192;5.722;2023-04-26T08:35:29;99175.63;;;23.64;33.30
34197;BME280;36594;45.192;5.722;2023-04-26T08:38:17;99172.31;;;23.64;33.28
34197;BME280;36594;45.192;5.722;2023-04-26T08:41:10;99175.89;;;23.65;33.31
34197;BME280;36594;45.192;5.722;2023-04-26T08:44:00;99183.84;;;23.64;33.36
34197;BME280;36594;45.192;5.722;2023-04-26T08:50:06;99180.54;;;23.64;33.39
34197;BME280;36594;45.192;5.722;2023-04-26T08:52:55;99176.69;;;23.63;33.45
34197;BME280;36594;45.192;5.722;2023-04-26T08:55:50;99183.27;;;23.62;33.47
34197;BME280;36594;45.192;5.722;2023-04-26T08:58:40;99178.36;;;23.64;33.45
34197;BME280;36594;45.192;5.722;2023-04-26T09:01:29;99178.36;;;23.64;33.46
34197;BME280;36594;45.192;5.722;2023-04-26T09:04:18;99170.41;;;23.65;33.51
34197;BME280;36594;45.192;5.722;2023-04-26T09:07:08;99171.78;;;23.65;33.47
34197;BME280;36594;45.192;5.722;2023-04-26T09:09:58;99175.89;;;23.65;33.52
34197;BME280;36594;45.192;5.722;2023-04-26T09:12:50;99173.45;;;23.66;33.51
34197;BME280;36594;45.192;5.722;2023-04-26T09:15:38;99172.09;;;23.66;33.53
34197;BME280;36594;45.192;5.722;2023-04-26T09:18:28;99163.55;;;23.65;33.57
34197;BME280;36594;45.192;5.722;2023-04-26T09:21:17;99164.13;;;23.67;33.55
34197;BME280;36594;45.192;5.722;2023-04-26T09:24:06;99166.34;;;23.67;33.56
34197;BME280;36594;45.192;5.722;2023-04-26T09:27:01;99165.23;;;23.66;33.56
34197;BME280;36594;45.192;5.722;2023-04-26T09:30:10;99162.19;;;23.65;33.57
34197;BME280;36594;45.192;5.722;2023-04-26T09:33:01;99157.28;;;23.67;33.59
34197;BME280;36594;45.192;5.722;2023-04-26T09:35:51;99155.33;;;23.65;33.62
34197;BME280;36594;45.192;5.722;2023-04-26T09:38:42;99150.38;;;23.64;33.64
34197;BME280;36594;45.192;5.722;2023-04-26T09:41:43;99155.33;;;23.65;33.62
34197;BME280;36594;45.192;5.722;2023-04-26T09:44:34;99153.95;;;23.65;33.68
34197;BME280;36594;45.192;5.722;2023-04-26T09:47:22;99144.89;;;23.64;33.67
34197;BME280;36594;45.192;5.722;2023-04-26T09:50:11;99143.51;;;23.62;33.72
34197;BME280;36594;45.192;5.722;2023-04-26T09:52:59;99143.78;;;23.63;33.73
34197;BME280;36594;45.192;5.722;2023-04-26T09:55:49;99142.98;;;23.65;33.71
34197;BME280;36594;45.192;5.722;2023-04-26T09:58:53;99139.97;;;23.64;33.69
34197;BME280;36594;45.192;5.722;2023-04-26T10:01:29;99139.97;;;23.64;33.71
34197;BME280;36594;45.192;5.722;2023-04-26T10:04:17;99140.25;;;23.65;33.69
34197;BME280;36594;45.192;5.722;2023-04-26T10:07:06;99135.91;;;23.66;33.71
34197;BME280;36594;45.192;5.722;2023-04-26T10:09:56;99133.39;;;23.65;33.72
34197;BME280;36594;45.192;5.722;2023-04-26T10:12:45;99125.73;;;23.67;33.71
34197;BME280;36594;45.192;5.722;2023-04-26T10:15:35;99125.16;;;23.65;33.73
34197;BME280;36594;45.192;5.722;2023-04-26T10:18:23;99119.68;;;23.65;33.73
34197;BME280;36594;45.192;5.722;2023-04-26T10:21:26;99121.05;;;23.65;33.75
34197;BME280;36594;45.192;5.722;2023-04-26T10:24:12;99115.87;;;23.66;33.72
34197;BME280;36594;45.192;5.722;2023-04-26T10:27:01;99111.41;;;23.62;33.79
34197;BME280;36594;45.192;5.722;2023-04-26T10:42:24;99079.08;;;23.64;33.84
34197;BME280;36594;45.192;5.722;2023-04-26T10:45:27;99064.80;;;23.62;33.86
34197;BME280;36594;45.192;5.722;2023-04-26T10:48:21;99066.17;;;23.62;33.90
34197;BME280;36594;45.192;5.722;2023-04-26T10:51:10;99061.25;;;23.62;33.88
34197;BME280;36594;45.192;5.722;2023-04-26T10:53:59;99062.05;;;23.62;33.87
34197;BME280;36594;45.192;5.722;2023-04-26T10:56:49;99065.14;;;23.66;33.86
34197;BME280;36594;45.192;5.722;2023-04-26T10:59:38;99059.92;;;23.67;33.83
34197;BME280;36594;45.192;5.722;2023-04-26T11:03:03;99048.69;;;23.66;33.86
34197;BME280;36594;45.192;5.722;2023-04-26T11:05:53;99045.14;;;23.68;33.82
34197;BME280;36594;45.192;5.722;2023-04-26T11:08:41;99041.48;;;23.62;33.89
34197;BME280;36594;45.192;5.722;2023-04-26T11:11:30;99039.59;;;23.63;33.91
34197;BME280;36594;45.192;5.722;2023-04-26T11:14:19;99031.93;;;23.65;33.89
34197;BME280;36594;45.192;5.722;2023-04-26T11:17:09;99028.39;;;23.67;33.89
34197;BME280;36594;45.192;5.722;2023-04-26T11:19:57;99021.30;;;23.68;33.87
34197;BME280;36594;45.192;5.722;2023-04-26T11:22:47;99019.94;;;23.68;33.83
34197;BME280;36594;45.192;5.722;2023-04-26T11:25:40;99015.55;;;23.70;33.84
34197;BME280;36594;45.192;5.722;2023-04-26T11:28:30;99017.19;;;23.68;33.82
34197;BME280;36594;45.192;5.722;2023-04-26T11:31:18;99013.12;;;23.71;33.82
34197;BME280;36594;45.192;5.722;2023-04-26T11:34:07;99003.75;;;23.69;33.80
34197;BME280;36594;45.192;5.722;2023-04-26T11:36:55;99000.77;;;23.71;33.84
34197;BME280;36594;45.192;5.722;2023-04-26T11:39:44;99002.95;;;23.71;33.78
34197;BME280;36594;45.192;5.722;2023-04-26T11:42:33;98997.47;;;23.71;33.87
34197;BME280;36594;45.192;5.722;2023-04-26T11:45:21;98991.45;;;23.72;33.84
34197;BME280;36594;45.192;5.722;2023-04-26T11:48:10;98987.33;;;23.72;33.84
34197;BME280;36594;45.192;5.722;2023-04-26T11:51:01;98985.13;;;23.71;33.87
34197;BME280;36594;45.192;5.722;2023-04-26T11:53:50;98982.98;;;23.73;33.81
34197;BME280;36594;45.192;5.722;2023-04-26T11:56:39;98978.61;;;23.75;33.83
34197;BME280;36594;45.192;5.722;2023-04-26T11:59:28;98968.44;;;23.73;33.81
34197;BME280;36594;45.192;5.722;2023-04-26T12:02:17;98954.96;;;23.71;33.85
34197;BME280;36594;45.192;5.722;2023-04-26T12:05:08;98961.28;;;23.72;33.83
34197;BME280;36594;45.192;5.722;2023-04-26T12:07:58;98954.73;;;23.73;33.85
34197;BME280;36594;45.192;5.722;2023-04-26T12:10:47;98956.37;;;23.74;33.81
34197;BME280;36594;45.192;5.722;2023-04-26T12:13:38;98958.84;;;23.73;33.82
34197;BME280;36594;45.192;5.722;2023-04-26T12:16:26;98955.00;;;23.74;33.81
34197;BME280;36594;45.192;5.722;2023-04-26T12:19:15;98958.84;;;23.73;33.83
34197;BME280;36594;45.192;5.722;2023-04-26T12:22:04;98951.69;;;23.72;33.81
34197;BME280;36594;45.192;5.722;2023-04-26T12:25:02;98950.08;;;23.73;33.81
34197;BME280;36594;45.192;5.722;2023-04-26T12:27:44;98950.64;;;23.75;33.77
34197;BME280;36594;45.192;5.722;2023-04-26T12:30:32;98950.92;;;23.76;33.77
34197;BME280;36594;45.192;5.722;2023-04-26T12:33:24;98941.85;;;23.76;33.75
34197;BME280;36594;45.192;5.722;2023-04-26T12:36:12;98948.70;;;23.76;33.76
34197;BME280;36594;45.192;5.722;2023-04-26T12:39:01;98942.16;;;23.77;33.68
34197;BME280;36594;45.192;5.722;2023-04-26T12:41:51;98945.43;;;23.76;33.72
34197;BME280;36594;45.192;5.722;2023-04-26T12:44:39;98937.73;;;23.76;33.71
34197;BME280;36594;45.192;5.722;2023-04-26T12:47:28;98936.94;;;23.75;33.70
34197;BME280;36594;45.192;5.722;2023-04-26T12:50:18;98925.94;;;23.73;33.68
34197;BME280;36594;45.192;5.722;2023-04-26T12:53:07;98927.37;;;23.78;33.67
34197;BME280;36594;45.192;5.722;2023-04-26T12:55:57;98925.70;;;23.77;33.69
34197;BME280;36594;45.192;5.722;2023-04-26T12:58:45;98914.73;;;23.77;33.70
34197;BME280;36594;45.192;5.722;2023-04-26T13:01:34;98921.31;;;23.78;33.70
34197;BME280;36594;45.192;5.722;2023-04-26T13:04:23;98913.66;;;23.78;33.68
34197;BME280;36594;45.192;5.722;2023-04-26T13:07:12;98906.50;;;23.77;33.68
34197;BME280;36594;45.192;5.722;2023-04-26T13:10:01;98902.95;;;23.79;33.68
34197;BME280;36594;45.192;5.722;2023-04-26T13:12:49;98907.37;;;23.80;33.67
34197;BME280;36594;45.192;5.722;2023-04-26T13:15:39;98900.24;;;23.81;33.63
34197;BME280;36594;45.192;5.722;2023-04-26T13:18:27;98904.36;;;23.81;33.64
34197;BME280;36594;45.192;5.722;2023-04-26T13:21:15;98900.52;;;23.80;33.63
34197;BME280;36594;45.192;5.722;2023-04-26T13:24:05;98899.70;;;23.82;33.62
34197;BME280;36594;45.192;5.722;2023-04-26T13:26:53;98897.80;;;23.82;33.59
34197;BME280;36594;45.192;5.722;2023-04-26T13:29:41;98902.45;;;23.82;33.56
34197;BME280;36594;45.192;5.722;2023-04-26T13:32:30;98904.39;;;23.84;33.54
34197;BME280;36594;45.192;5.722;2023-04-26T13:35:18;98910.95;;;23.83;33.55
34197;BME280;36594;45.192;5.722;2023-04-26T13:38:07;98899.73;;;23.84;33.52
34197;BME280;36594;45.192;5.722;2023-04-26T13:40:56;98903.28;;;23.82;33.51
34197;BME280;36594;45.192;5.722;2023-04-26T13:43:44;98899.73;;;23.84;33.50
34197;BME280;36594;45.192;5.722;2023-04-26T13:46:33;98894.25;;;23.84;33.50
34197;BME280;36594;45.192;5.722;2023-04-26T13:49:27;98893.42;;;23.84;33.47
34197;BME280;36594;45.192;5.722;2023-04-26T13:52:13;98891.52;;;23.84;33.42
34197;BME280;36594;45.192;5.722;2023-04-26T13:55:00;98889.30;;;23.84;33.41
34197;BME280;36594;45.192;5.722;2023-04-26T13:57:50;98891.52;;;23.84;33.39
34197;BME280;36594;45.192;5.722;2023-04-26T14:00:39;98888.73;;;23.82;33.38
34197;BME280;36594;45.192;5.722;2023-04-26T14:03:27;98893.72;;;23.85;33.37
34197;BME280;36594;45.192;5.722;2023-04-26T14:06:15;98886.30;;;23.85;33.33
34197;BME280;36594;45.192;5.722;2023-04-26T14:09:04;98897.03;;;23.87;33.29
34197;BME280;36594;45.192;5.722;2023-04-26T14:11:53;98879.73;;;23.86;33.24
34197;BME280;36594;45.192;5.722;2023-04-26T14:14:41;98876.99;;;23.86;33.19
34197;BME280;36594;45.192;5.722;2023-04-26T14:17:30;98871.98;;;23.81;33.22
34197;BME280;36594;45.192;5.722;2023-04-26T14:20:18;98882.45;;;23.84;33.20
34197;BME280;36594;45.192;5.722;2023-04-26T14:23:07;98889.88;;;23.86;33.17
34197;BME280;36594;45.192;5.722;2023-04-26T14:25:55;98886.59;;;23.86;33.11
34197;BME280;36594;45.192;5.722;2023-04-26T14:28:44;98886.59;;;23.86;33.04
34197;BME280;36594;45.192;5.722;2023-04-26T14:31:32;98884.41;;;23.88;32.99
34197;BME280;36594;45.192;5.722;2023-04-26T14:34:21;98887.42;;;23.87;32.97
34197;BME280;36594;45.192;5.722;2023-04-26T14:37:09;98891.57;;;23.89;32.88
34197;BME280;36594;45.192;5.722;2023-04-26T14:39:58;98884.74;;;23.94;32.84
34197;BME280;36594;45.192;5.722;2023-04-26T14:42:47;98886.92;;;23.92;32.77
34197;BME280;36594;45.192;5.722;2023-04-26T14:45:35;98900.12;;;23.95;32.78
34197;BME280;36594;45.192;5.722;2023-04-26T14:48:24;98902.07;;;23.97;32.81
34197;BME280;36594;45.192;5.722;2023-04-26T14:51:12;98907.02;;;23.98;32.76
34197;BME280;36594;45.192;5.722;2023-04-26T14:54:00;98895.23;;;24.00;32.68
34197;BME280;36594;45.192;5.722;2023-04-26T14:56:49;98909.50;;;23.99;32.63
34197;BME280;36594;45.192;5.722;2023-04-26T14:59:38;98902.94;;;24.00;32.51
34197;BME280;36594;45.192;5.722;2023-04-26T15:02:26;98898.82;;;24.00;32.47
34197;BME280;36594;45.192;5.722;2023-04-26T15:05:14;98894.17;;;24.01;32.37
34197;BME280;36594;45.192;5.722;2023-04-26T15:08:03;98903.20;;;24.01;32.48
34197;BME280;36594;45.192;5.722;2023-04-26T15:10:52;98907.91;;;24.03;32.33
34197;BME280;36594;45.192;5.722;2023-04-26T15:13:40;98900.48;;;24.04;32.47